createdAt,value
2019-04-16T00:02:31.572Z,99.90
2019-04-16T00:05:10.804Z,99.90
2019-04-16T00:07:47.136Z,99.90
2019-04-16T00:10:39.624Z,99.90
2019-04-16T00:13:22.169Z,99.90
2019-04-16T00:15:52.228Z,99.90
2019-04-16T00:18:22.487Z,99.90
2019-04-16T00:21:14.299Z,99.90
2019-04-16T00:24:19.307Z,99.90
2019-04-16T00:26:51.754Z,99.90
2019-04-16T00:29:21.669Z,99.90
2019-04-16T00:32:01.022Z,99.90
2019-04-16T00:34:31.404Z,99.90
2019-04-16T00:37:01.317Z,99.90
2019-04-16T00:39:31.733Z,99.90
2019-04-16T00:42:01.828Z,99.90
2019-04-16T00:44:31.835Z,99.90
2019-04-16T00:47:02.146Z,99.90
2019-04-16T00:49:32.463Z,99.90
2019-04-16T00:52:05.709Z,99.90
2019-04-16T00:54:34.402Z,99.90
2019-04-16T00:57:04.489Z,99.90
2019-04-16T00:59:34.431Z,99.90
2019-04-16T01:02:05.165Z,99.90
2019-04-16T01:04:35.453Z,99.90
2019-04-16T01:07:05.427Z,99.90
2019-04-16T01:09:35.783Z,99.90
2019-04-16T01:12:05.844Z,99.90
2019-04-16T01:14:35.854Z,99.90
2019-04-16T01:17:06.197Z,99.90
2019-04-16T01:19:38.271Z,99.90
2019-04-16T01:22:08.406Z,99.90
2019-04-16T01:24:38.740Z,99.90
2019-04-16T01:27:08.736Z,99.90
2019-04-16T01:29:39.063Z,99.90
2019-04-16T01:32:30.585Z,99.90
2019-04-16T01:35:26.024Z,99.90
2019-04-16T01:38:13.456Z,99.90
2019-04-16T01:40:52.765Z,99.90
2019-04-16T01:43:25.545Z,99.90
2019-04-16T01:45:54.469Z,99.90
2019-04-16T01:48:24.353Z,99.90
2019-04-16T01:50:54.622Z,99.90
2019-04-16T01:53:24.875Z,99.90
2019-04-16T01:55:57.057Z,99.90
2019-04-16T01:58:26.675Z,99.90
2019-04-16T02:00:56.656Z,99.90
2019-04-16T02:03:26.514Z,99.90
2019-04-16T02:05:57.366Z,99.90
2019-04-16T02:08:28.354Z,99.90
2019-04-16T02:10:59.007Z,99.90
2019-04-16T02:13:28.941Z,99.90
2019-04-16T02:15:58.891Z,99.90
2019-04-16T02:18:29.718Z,99.90
2019-04-16T02:21:00.592Z,99.90
2019-04-16T02:23:31.057Z,99.90
2019-04-16T02:26:01.265Z,99.90
2019-04-16T02:28:31.206Z,99.90
2019-04-16T02:31:01.609Z,99.90
2019-04-16T02:33:31.509Z,99.90
2019-04-16T02:36:01.813Z,99.90
2019-04-16T02:38:32.064Z,99.90
2019-04-16T02:41:02.224Z,99.90
2019-04-16T02:43:39.576Z,99.90
2019-04-16T02:46:04.584Z,99.90
2019-04-16T02:48:34.498Z,99.90
2019-04-16T02:51:20.092Z,99.90
2019-04-16T02:54:11.919Z,99.90
2019-04-16T02:57:00.879Z,99.90
2019-04-16T02:59:34.149Z,99.90
2019-04-16T03:02:23.801Z,99.90
2019-04-16T03:05:06.310Z,99.90
2019-04-16T03:07:37.094Z,99.90
2019-04-16T03:10:12.091Z,99.90
2019-04-16T03:12:38.803Z,99.90
2019-04-16T03:15:09.367Z,99.90
2019-04-16T03:17:43.752Z,99.90
2019-04-16T03:20:14.656Z,99.90
2019-04-16T03:22:45.290Z,99.90
2019-04-16T03:25:15.267Z,99.90
2019-04-16T03:27:45.655Z,99.90
2019-04-16T03:30:16.087Z,99.90
2019-04-16T03:32:50.857Z,99.90
2019-04-16T03:35:25.170Z,99.90
2019-04-16T03:37:53.070Z,99.90
2019-04-16T03:40:25.399Z,99.90
2019-04-16T03:42:58.937Z,99.90
2019-04-16T03:45:26.625Z,99.90
2019-04-16T03:47:56.544Z,99.90
2019-04-16T03:50:31.077Z,99.90
2019-04-16T03:52:59.121Z,99.90
2019-04-16T03:55:29.056Z,99.90
2019-04-16T03:57:58.946Z,99.90
2019-04-16T04:00:29.473Z,99.90
2019-04-16T04:02:59.428Z,99.90
2019-04-16T04:05:29.311Z,99.90
2019-04-16T04:07:59.951Z,99.90
2019-04-16T04:10:31.431Z,99.90
2019-04-16T04:13:04.731Z,99.90
2019-04-16T04:15:33.341Z,99.90
2019-04-16T04:18:03.316Z,99.90
2019-04-16T04:20:33.250Z,99.90
2019-04-16T04:23:03.509Z,99.90
2019-04-16T04:25:36.370Z,99.90
2019-04-16T04:28:06.111Z,99.90
2019-04-16T04:30:36.176Z,99.90
2019-04-16T04:33:08.808Z,99.90
2019-04-16T04:35:37.713Z,99.90
2019-04-16T04:38:07.969Z,99.90
2019-04-16T04:40:44.834Z,99.90
2019-04-16T04:43:10.039Z,99.90
2019-04-16T04:45:40.916Z,99.90
2019-04-16T04:48:12.112Z,99.90
2019-04-16T04:50:42.747Z,99.90
2019-04-16T04:53:15.619Z,99.90
2019-04-16T04:55:44.802Z,99.90
2019-04-16T04:58:14.948Z,99.90
2019-04-16T05:00:45.226Z,99.90
2019-04-16T05:03:25.496Z,99.90
2019-04-16T05:05:56.831Z,99.90
2019-04-16T05:08:28.655Z,99.90
2019-04-16T05:11:02.659Z,99.90
2019-04-16T05:13:30.477Z,99.90
2019-04-16T05:16:01.957Z,99.90
2019-04-16T05:18:32.083Z,99.90
2019-04-16T05:21:02.180Z,99.90
2019-04-16T05:23:32.396Z,99.90
2019-04-16T05:26:04.796Z,99.90
2019-04-16T05:28:34.321Z,99.90
2019-04-16T05:31:04.187Z,99.90
2019-04-16T05:33:34.514Z,99.90
2019-04-16T05:36:05.863Z,99.90
2019-04-16T05:38:35.976Z,99.90
2019-04-16T05:41:13.301Z,99.90
2019-04-16T05:43:38.020Z,99.90
2019-04-16T05:46:08.849Z,99.90
2019-04-16T05:48:39.877Z,99.90
2019-04-16T05:51:09.861Z,99.90
2019-04-16T05:53:41.822Z,99.90
2019-04-16T05:56:36.637Z,99.90
2019-04-16T05:59:06.795Z,99.90
2019-04-16T06:01:42.391Z,99.90
2019-04-16T06:04:12.649Z,99.90
2019-04-16T06:06:42.563Z,99.90
2019-04-16T06:09:13.599Z,99.90
2019-04-16T06:11:43.882Z,99.90
2019-04-16T06:14:29.602Z,99.90
2019-04-16T06:17:31.816Z,99.90
2019-04-16T06:20:21.303Z,99.90
2019-04-16T06:23:25.158Z,99.90
2019-04-16T06:26:16.062Z,99.90
2019-04-16T06:28:55.040Z,99.90
2019-04-16T06:31:53.407Z,99.90
2019-04-16T06:34:40.690Z,99.90
2019-04-16T06:37:21.577Z,99.90
2019-04-16T06:40:23.950Z,99.90
2019-04-16T06:43:03.303Z,99.90
2019-04-16T06:45:40.935Z,99.90
2019-04-16T06:48:13.981Z,99.90
2019-04-16T06:51:01.561Z,99.90
2019-04-16T06:53:49.257Z,99.90
2019-04-16T06:56:43.914Z,99.90
2019-04-16T06:59:26.555Z,99.90
2019-04-16T07:02:29.719Z,99.90
2019-04-16T07:05:07.365Z,99.90
2019-04-16T07:08:01.000Z,99.90
2019-04-16T07:10:44.370Z,99.90
2019-04-16T07:13:10.264Z,99.90
2019-04-16T07:15:38.166Z,99.90
2019-04-16T07:18:08.045Z,99.90
2019-04-16T07:20:38.043Z,99.90
2019-04-16T07:23:08.420Z,99.90
2019-04-16T07:25:41.709Z,99.90
2019-04-16T07:28:31.999Z,99.90
2019-04-16T07:31:33.556Z,99.90
2019-04-16T07:34:14.834Z,99.90
2019-04-16T07:36:56.579Z,99.90
2019-04-16T07:39:41.086Z,99.90
2019-04-16T07:42:21.413Z,99.90
2019-04-16T07:45:14.353Z,99.90
2019-04-16T07:48:06.093Z,99.90
2019-04-16T07:50:53.094Z,99.90
2019-04-16T07:53:39.616Z,99.90
2019-04-16T07:56:17.029Z,99.90
2019-04-16T07:58:46.987Z,99.90
2019-04-16T08:01:16.999Z,99.90
2019-04-16T08:03:47.615Z,99.90
2019-04-16T08:06:17.552Z,99.90
2019-04-16T08:08:47.505Z,99.90
2019-04-16T08:11:17.860Z,99.90
2019-04-16T08:13:47.750Z,99.90
2019-04-16T08:16:17.640Z,99.90
2019-04-16T08:18:49.559Z,99.90
2019-04-16T08:21:22.447Z,99.90
2019-04-16T08:24:00.425Z,99.90
2019-04-16T08:26:30.334Z,99.90
2019-04-16T08:29:00.243Z,99.90
2019-04-16T08:31:33.242Z,99.90
2019-04-16T08:34:03.680Z,99.90
2019-04-16T08:36:33.709Z,99.90
2019-04-16T08:39:06.483Z,99.90
2019-04-16T08:41:36.611Z,99.90
2019-04-16T08:44:09.630Z,99.90
2019-04-16T08:46:40.115Z,99.90
2019-04-16T08:49:10.377Z,99.90
2019-04-16T08:51:40.610Z,99.90
2019-04-16T08:54:10.567Z,99.90
2019-04-16T08:56:40.522Z,99.90
2019-04-16T08:59:11.348Z,99.90
2019-04-16T09:01:41.835Z,99.90
2019-04-16T09:04:12.314Z,99.90
2019-04-16T09:06:42.580Z,99.90
2019-04-16T09:09:41.970Z,99.90
2019-04-16T09:12:11.856Z,99.90
2019-04-16T09:14:48.225Z,99.90
2019-04-16T09:17:36.988Z,99.90
2019-04-16T09:20:13.544Z,99.90
2019-04-16T09:22:49.484Z,98.60
2019-04-16T09:25:37.413Z,99.90
2019-04-16T09:28:25.778Z,99.00
2019-04-16T09:31:22.034Z,98.90
2019-04-16T09:33:57.484Z,98.70
2019-04-16T09:37:02.223Z,98.40
2019-04-16T09:39:40.559Z,97.00
2019-04-16T09:42:10.848Z,96.00
2019-04-16T09:44:40.743Z,94.10
2019-04-16T09:47:10.687Z,96.90
2019-04-16T09:49:41.007Z,94.60
2019-04-16T09:52:11.303Z,94.10
2019-04-16T09:54:41.543Z,94.60
2019-04-16T09:57:13.197Z,93.60
2019-04-16T09:59:50.765Z,92.70
2019-04-16T10:02:24.262Z,92.60
2019-04-16T10:04:54.174Z,91.40
2019-04-16T10:07:24.328Z,91.50
2019-04-16T10:09:55.268Z,92.30
2019-04-16T10:12:25.324Z,91.10
2019-04-16T10:14:55.327Z,91.30
2019-04-16T10:17:25.261Z,90.10
2019-04-16T10:19:55.311Z,92.30
2019-04-16T10:22:25.985Z,93.00
2019-04-16T10:25:13.071Z,90.30
2019-04-16T10:27:58.539Z,85.90
2019-04-16T10:30:32.618Z,88.00
2019-04-16T10:33:02.794Z,91.60
2019-04-16T10:35:33.000Z,88.50
2019-04-16T10:38:13.891Z,91.10
2019-04-16T10:40:47.529Z,91.90
2019-04-16T10:43:44.358Z,90.80
2019-04-16T10:46:22.834Z,91.90
2019-04-16T10:49:18.081Z,92.50
2019-04-16T10:52:22.456Z,90.00
2019-04-16T10:55:14.970Z,93.30
2019-04-16T10:58:02.320Z,93.90
2019-04-16T11:00:51.460Z,95.20
2019-04-16T11:03:34.761Z,92.90
2019-04-16T11:06:08.643Z,93.80
2019-04-16T11:08:38.551Z,91.90
2019-04-16T11:11:09.021Z,86.80
2019-04-16T11:13:43.112Z,87.30
2019-04-16T11:16:15.259Z,83.20
2019-04-16T11:18:45.435Z,85.00
2019-04-16T11:21:16.440Z,79.90
2019-04-16T11:23:46.346Z,80.00
2019-04-16T11:26:16.587Z,69.20
2019-04-16T11:28:46.835Z,76.30
2019-04-16T11:31:18.861Z,82.70
2019-04-16T11:33:48.982Z,77.90
2019-04-16T11:36:21.011Z,74.50
2019-04-16T11:38:51.240Z,71.20
2019-04-16T11:41:21.408Z,69.80
2019-04-16T11:43:51.283Z,71.50
2019-04-16T11:46:21.674Z,77.70
2019-04-16T11:48:51.483Z,71.40
2019-04-16T11:51:21.437Z,69.50
2019-04-16T11:53:51.638Z,71.90
2019-04-16T11:56:22.660Z,74.20
2019-04-16T11:58:53.076Z,77.10
2019-04-16T12:01:31.740Z,71.20
2019-04-16T12:04:16.994Z,71.30
2019-04-16T12:07:01.036Z,69.50
2019-04-16T12:09:55.714Z,66.80
2019-04-16T12:12:30.580Z,70.00
2019-04-16T12:15:09.579Z,68.40
2019-04-16T12:18:13.554Z,67.00
2019-04-16T12:20:46.478Z,64.00
2019-04-16T12:23:26.424Z,60.80
2019-04-16T12:26:12.415Z,58.10
2019-04-16T12:29:00.249Z,59.70
2019-04-16T12:31:55.438Z,59.00
2019-04-16T12:34:56.346Z,56.10
2019-04-16T12:37:44.298Z,54.10
2019-04-16T12:40:51.346Z,53.30
2019-04-16T12:43:28.752Z,47.70
2019-04-16T12:46:21.761Z,45.90
2019-04-16T12:49:17.977Z,43.50
2019-04-16T12:51:55.786Z,44.00
2019-04-16T12:54:37.761Z,43.90
2019-04-16T12:57:29.344Z,44.70
2019-04-16T13:00:13.813Z,45.10
2019-04-16T13:03:01.039Z,46.60
2019-04-16T13:05:39.247Z,42.40
2019-04-16T13:08:31.080Z,41.80
2019-04-16T13:11:25.966Z,41.60
2019-04-16T13:14:04.123Z,41.80
2019-04-16T13:16:49.161Z,40.40
2019-04-16T13:19:40.232Z,37.60
2019-04-16T13:22:11.506Z,41.10
2019-04-16T13:25:12.378Z,42.90
2019-04-16T13:27:42.994Z,43.00
2019-04-16T13:30:13.123Z,42.90
2019-04-16T13:32:43.041Z,44.80
2019-04-16T13:35:13.561Z,44.90
2019-04-16T13:37:43.526Z,45.70
2019-04-16T13:40:16.144Z,44.30
2019-04-16T13:42:46.556Z,41.70
2019-04-16T13:45:30.946Z,44.50
2019-04-16T13:48:15.669Z,46.10
2019-04-16T13:50:57.294Z,46.70
2019-04-16T13:54:00.994Z,46.60
2019-04-16T13:56:37.555Z,47.90
2019-04-16T13:59:30.194Z,49.20
2019-04-16T14:02:17.348Z,49.20
2019-04-16T14:04:46.394Z,49.00
2019-04-16T14:07:16.432Z,49.70
2019-04-16T14:09:46.440Z,48.80
2019-04-16T14:12:16.382Z,47.20
2019-04-16T14:14:49.477Z,47.00
2019-04-16T14:17:21.770Z,46.20
2019-04-16T14:19:52.118Z,45.80
2019-04-16T14:22:22.584Z,47.90
2019-04-16T14:24:53.067Z,48.30
2019-04-16T14:27:23.011Z,48.10
2019-04-16T14:29:53.015Z,46.30
2019-04-16T14:32:23.288Z,48.70
2019-04-16T14:34:56.523Z,49.90
2019-04-16T14:37:26.620Z,46.60
2019-04-16T14:40:11.370Z,45.70
2019-04-16T14:42:41.574Z,47.50
2019-04-16T14:45:24.104Z,47.70
2019-04-16T14:47:54.530Z,48.70
2019-04-16T14:50:24.973Z,47.10
2019-04-16T14:52:55.204Z,46.90
2019-04-16T14:55:32.113Z,46.40
2019-04-16T14:58:09.170Z,46.60
2019-04-16T15:01:01.000Z,46.50
2019-04-16T15:03:57.569Z,46.00
2019-04-16T15:06:52.937Z,42.90
2019-04-16T15:09:33.484Z,41.20
2019-04-16T15:12:28.402Z,40.10
2019-04-16T15:15:05.258Z,41.60
2019-04-16T15:17:43.382Z,40.80
2019-04-16T15:20:36.141Z,38.50
2019-04-16T15:23:25.653Z,38.10
2019-04-16T15:26:23.802Z,37.90
2019-04-16T15:28:59.432Z,39.30
2019-04-16T15:31:42.264Z,37.80
2019-04-16T15:34:15.006Z,37.90
2019-04-16T15:37:06.049Z,39.10
2019-04-16T15:39:59.623Z,37.40
2019-04-16T15:42:48.462Z,40.00
2019-04-16T15:45:37.955Z,39.10
2019-04-16T15:48:22.402Z,38.20
2019-04-16T15:51:15.238Z,37.80
2019-04-16T15:54:04.717Z,35.00
2019-04-16T15:56:55.130Z,36.80
2019-04-16T15:59:43.964Z,39.50
2019-04-16T16:02:29.067Z,41.40
2019-04-16T16:05:07.123Z,42.30
2019-04-16T16:07:42.622Z,41.70
2019-04-16T16:10:19.168Z,42.70
2019-04-16T16:12:50.860Z,44.20
2019-04-16T16:15:21.271Z,46.00
2019-04-16T16:17:51.182Z,47.70
2019-04-16T16:20:21.281Z,49.20
2019-04-16T16:22:51.666Z,49.00
2019-04-16T16:25:23.287Z,49.60
2019-04-16T16:27:54.193Z,49.80
2019-04-16T16:30:24.283Z,50.10
2019-04-16T16:32:54.673Z,51.90
2019-04-16T16:35:24.700Z,51.80
2019-04-16T16:37:54.648Z,52.00
2019-04-16T16:40:25.019Z,51.30
2019-04-16T16:42:55.441Z,49.60
2019-04-16T16:45:40.761Z,47.50
2019-04-16T16:48:10.758Z,46.20
2019-04-16T16:50:43.829Z,46.70
2019-04-16T16:53:31.044Z,44.90
2019-04-16T16:56:07.798Z,47.90
2019-04-16T16:58:44.688Z,47.80
2019-04-16T17:01:35.107Z,47.40
2019-04-16T17:04:30.448Z,47.50
2019-04-16T17:07:00.947Z,47.60
2019-04-16T17:09:35.590Z,49.20
2019-04-16T17:12:06.549Z,49.40
2019-04-16T17:14:37.953Z,51.40
2019-04-16T17:17:13.811Z,53.80
2019-04-16T17:19:40.160Z,54.10
2019-04-16T17:22:10.488Z,53.00
2019-04-16T17:24:40.459Z,53.30
2019-04-16T17:27:10.546Z,53.40
2019-04-16T17:29:41.357Z,52.80
2019-04-16T17:32:11.480Z,53.00
2019-04-16T17:34:41.397Z,52.80
2019-04-16T17:37:12.011Z,54.40
2019-04-16T17:40:04.084Z,57.00
2019-04-16T17:42:38.389Z,64.00
2019-04-16T17:45:26.871Z,69.30
2019-04-16T17:48:18.120Z,72.00
2019-04-16T17:51:06.427Z,73.60
2019-04-16T17:53:43.463Z,77.70
2019-04-16T17:56:41.455Z,82.80
2019-04-16T17:59:15.766Z,88.00
2019-04-16T18:02:07.937Z,93.00
2019-04-16T18:05:11.845Z,95.40
2019-04-16T18:08:03.654Z,97.50
2019-04-16T18:10:49.640Z,99.80
2019-04-16T18:13:38.530Z,99.90
2019-04-16T18:16:19.766Z,99.90
2019-04-16T18:19:09.948Z,99.90
2019-04-16T18:21:53.016Z,99.90
2019-04-16T18:24:45.019Z,99.90
2019-04-16T18:27:34.403Z,99.90
2019-04-16T18:30:23.286Z,99.90
2019-04-16T18:33:15.696Z,99.90
2019-04-16T18:36:10.450Z,99.90
2019-04-16T18:38:50.002Z,99.90
2019-04-16T18:41:37.618Z,99.90
2019-04-16T18:44:29.170Z,99.90
2019-04-16T18:47:29.207Z,99.90
2019-04-16T18:50:02.005Z,99.90
2019-04-16T18:52:31.962Z,99.90
2019-04-16T18:55:01.990Z,99.90
2019-04-16T18:57:32.458Z,99.90
2019-04-16T19:00:04.173Z,99.90
2019-04-16T19:02:34.634Z,99.90
2019-04-16T19:05:05.124Z,99.90
2019-04-16T19:07:35.208Z,99.90
2019-04-16T19:10:05.875Z,99.90
2019-04-16T19:12:35.819Z,99.90
2019-04-16T19:15:06.378Z,99.90
2019-04-16T19:17:36.279Z,99.90
2019-04-16T19:20:06.893Z,99.90
2019-04-16T19:22:37.253Z,99.90
2019-04-16T19:25:09.013Z,99.90
2019-04-16T19:27:39.527Z,99.90
2019-04-16T19:30:10.155Z,99.90
2019-04-16T19:32:40.278Z,99.90
2019-04-16T19:35:14.449Z,99.90
2019-04-16T19:37:42.481Z,99.90
2019-04-16T19:40:15.394Z,99.90
2019-04-16T19:42:44.281Z,99.90
2019-04-16T19:45:14.395Z,99.90
2019-04-16T19:47:44.329Z,99.90
2019-04-16T19:50:16.506Z,99.90
2019-04-16T19:52:46.541Z,99.90
2019-04-16T19:55:16.910Z,99.90
2019-04-16T19:57:46.854Z,99.90
2019-04-16T20:00:22.078Z,99.90
2019-04-16T20:02:49.164Z,99.90
2019-04-16T20:05:19.472Z,99.90
2019-04-16T20:07:49.551Z,99.90
2019-04-16T20:10:19.490Z,99.90
2019-04-16T20:12:49.679Z,99.90
2019-04-16T20:15:19.843Z,99.90
2019-04-16T20:17:49.808Z,99.90
2019-04-16T20:20:20.574Z,99.90
2019-04-16T20:22:50.534Z,99.90
2019-04-16T20:25:20.447Z,99.90
2019-04-16T20:27:50.620Z,99.90
2019-04-16T20:30:23.089Z,99.90
2019-04-16T20:32:52.505Z,99.90
2019-04-16T20:35:22.749Z,99.90
2019-04-16T20:37:53.924Z,99.90
2019-04-16T20:40:24.486Z,99.90
2019-04-16T20:42:54.436Z,99.90
2019-04-16T20:45:24.412Z,99.90
2019-04-16T20:47:54.825Z,99.90
2019-04-16T20:50:25.598Z,99.90
2019-04-16T20:52:55.913Z,99.90
2019-04-16T20:55:25.842Z,99.90
2019-04-16T20:57:58.588Z,99.90
2019-04-16T21:00:30.372Z,99.90
2019-04-16T21:03:02.559Z,99.90
2019-04-16T21:05:35.510Z,99.90
2019-04-16T21:08:03.917Z,99.90
2019-04-16T21:10:35.677Z,99.90
2019-04-16T21:13:06.019Z,99.90
2019-04-16T21:15:36.110Z,99.90
2019-04-16T21:18:10.486Z,99.90
2019-04-16T21:20:38.090Z,99.90
2019-04-16T21:23:08.104Z,99.90
2019-04-16T21:25:38.043Z,99.90
2019-04-16T21:28:20.074Z,99.90
2019-04-16T21:30:53.475Z,99.90
2019-04-16T21:33:45.670Z,99.90
2019-04-16T21:36:25.353Z,99.90
2019-04-16T21:39:17.139Z,99.90
2019-04-16T21:41:45.994Z,99.90
2019-04-16T21:44:16.242Z,99.90
2019-04-16T21:46:46.190Z,99.90
2019-04-16T21:49:16.130Z,99.90
2019-04-16T21:52:04.522Z,99.90
2019-04-16T21:54:34.881Z,99.90
2019-04-16T21:57:05.756Z,99.90
2019-04-16T21:59:37.413Z,99.90
2019-04-16T22:02:28.966Z,99.90
2019-04-16T22:04:59.121Z,99.90
2019-04-16T22:07:29.260Z,99.90
2019-04-16T22:09:59.258Z,99.90
2019-04-16T22:12:29.217Z,99.90
2019-04-16T22:14:59.144Z,99.90
2019-04-16T22:17:29.379Z,99.90
2019-04-16T22:20:03.649Z,99.90
2019-04-16T22:22:31.680Z,99.90
2019-04-16T22:25:01.949Z,99.90
2019-04-16T22:27:32.324Z,99.90
2019-04-16T22:30:02.261Z,99.90
2019-04-16T22:32:32.180Z,99.90
2019-04-16T22:35:02.692Z,99.90
2019-04-16T22:37:32.712Z,99.90
2019-04-16T22:40:28.007Z,99.90
2019-04-16T22:43:15.516Z,99.90
2019-04-16T22:45:57.240Z,99.90
2019-04-16T22:48:27.145Z,99.90
2019-04-16T22:50:57.359Z,99.90
2019-04-16T22:53:27.921Z,99.90
2019-04-16T22:55:58.601Z,99.90
2019-04-16T22:58:47.813Z,99.90
2019-04-16T23:01:18.678Z,99.90
2019-04-16T23:03:49.872Z,99.90
2019-04-16T23:06:20.540Z,99.90
2019-04-16T23:08:51.162Z,99.90
2019-04-16T23:11:23.700Z,99.90
2019-04-16T23:13:53.150Z,99.90
2019-04-16T23:16:23.065Z,99.90
2019-04-16T23:18:53.087Z,99.90
2019-04-16T23:21:23.468Z,99.90
2019-04-16T23:23:53.901Z,99.90
2019-04-16T23:26:23.814Z,99.90
2019-04-16T23:28:54.067Z,99.90
2019-04-16T23:31:24.014Z,99.90
2019-04-16T23:33:53.962Z,99.90
2019-04-16T23:36:24.302Z,99.90
2019-04-16T23:38:54.598Z,99.90
2019-04-16T23:41:24.564Z,99.90
2019-04-16T23:44:12.308Z,99.90
2019-04-16T23:47:10.221Z,99.90
2019-04-16T23:50:04.799Z,99.90
2019-04-16T23:52:40.069Z,99.90
2019-04-16T23:55:18.823Z,99.90
2019-04-16T23:58:06.509Z,99.90
